Vasiliy Bozhenko — URHP — position and weather

sailwx.info

Track history (hours):
 
Tides and Currents Weather Stations Pressure Air Temp Water Temp Dewpoint Dewpoint Depression Visibility Wind Speed Wind Dir Waves Ship Positions

Vasiliy Bozhenko

Last reported at 2014-Aug-30 19:33 UTC. Time now 2014-Sep-01 21:10 UTC.
Position N 46°33' E 031°27'.

Length 114 m; draft 3.8 m.

Type: Cargo ship. MMSI: 272085000.

Date/timePositionNaut miles runAvg speedWind from/ knotsBaromVisibWave heightAir tempDewpointWater temp
2014-Aug-30 19:33N 46°33' E 031°27'5 5.0
2014-Aug-30 18:33N 46°35' E 031°34'7 7.2
2014-Aug-30 17:33N 46°36' E 031°44'7 7.2
2014-Aug-30 16:34N 46°34' E 031°55'8 7.3
2014-Aug-30 15:27N 46°32' E 032°06'143 4.9
2014-Aug-29 10:33N 47°43' E 035°08'6 6.5
2014-Aug-29 09:33N 47°49' E 035°09'4 3.5
2014-Aug-29 08:32N 47°52' E 035°06'1 0.7
2014-Aug-29 07:32N 47°52' E 035°06'0 0.0
2014-Aug-29 06:32N 47°52' E 035°06'0 0.0
2014-Aug-29 05:32N 47°52' E 035°06'0 0.0
2014-Aug-29 04:32N 47°52' E 035°06'0 0.1
2014-Aug-29 03:32N 47°52' E 035°06'0 0.2
2014-Aug-29 02:32N 47°52' E 035°06'0 0.0
2014-Aug-29 01:32N 47°52' E 035°06'0 0.0
2014-Aug-29 00:14N 47°52' E 035°06'0 0.0
2014-Aug-28 23:32N 47°52' E 035°06'0 0.0
2014-Aug-28 22:32N 47°52' E 035°06'0 0.0
2014-Aug-28 20:32N 47°52' E 035°06'0 0.0
2014-Aug-28 19:32N 47°52' E 035°06'0 0.0
2014-Aug-28 18:32N 47°52' E 035°06'0 0.0
2014-Aug-28 17:26N 47°52' E 035°06'0 0.0
2014-Aug-28 16:28N 47°52' E 035°06'0 0.0
2014-Aug-28 15:28N 47°52' E 035°06'0 0.0
2014-Aug-28 14:28N 47°52' E 035°06'0 0.0
2014-Aug-28 13:28N 47°52' E 035°06'0 0.0
2014-Aug-28 12:28N 47°52' E 035°06'0 0.0
2014-Aug-28 11:34N 47°52' E 035°06'0 0.0
2014-Aug-28 10:33N 47°52' E 035°06'0 0.0
2014-Aug-28 09:33N 47°52' E 035°06'0 0.0
2014-Aug-28 08:33N 47°52' E 035°06'0 0.0
2014-Aug-28 07:33N 47°52' E 035°06'0 0.0
2014-Aug-28 06:33N 47°52' E 035°06'0 0.0
2014-Aug-28 05:34N 47°52' E 035°06'0 0.0
2014-Aug-28 04:33N 47°52' E 035°06'0 0.0
2014-Aug-28 03:34N 47°52' E 035°06'0 0.0
2014-Aug-28 02:28N 47°52' E 035°06'0 0.0
2014-Aug-28 01:34N 47°52' E 035°06'0 0.0
2014-Aug-28 00:33N 47°52' E 035°06'0 0.1
2014-Aug-27 23:33N 47°52' E 035°06'0 0.0
2014-Aug-27 22:33N 47°52' E 035°06'0 0.0
2014-Aug-27 21:27N 47°52' E 035°06'0 0.0
2014-Aug-27 20:33N 47°52' E 035°06'0 0.0
2014-Aug-27 19:33N 47°52' E 035°06'0 0.0
2014-Aug-27 18:34N 47°52' E 035°06'0 0.0
2014-Aug-27 17:33N 47°52' E 035°06'0 0.0
2014-Aug-27 16:34N 47°52' E 035°06'0 0.0
2014-Aug-27 15:27N 47°52' E 035°06'0 0.0
2014-Aug-27 14:33N 47°52' E 035°06'0 0.0
2014-Aug-27 13:33N 47°52' E 035°06'0 0.0
2014-Aug-27 12:33N 47°52' E 035°06'0 0.0
2014-Aug-27 11:34N 47°52' E 035°06'0 0.0
2014-Aug-27 10:31N 47°52' E 035°06'0 0.0
2014-Aug-27 09:33N 47°52' E 035°06'0 0.0
2014-Aug-27 08:27N 47°52' E 035°06'0 0.0
2014-Aug-27 07:33N 47°52' E 035°06'0 0.0
2014-Aug-27 06:28N 47°52' E 035°06'0 0.0
2014-Aug-27 04:27N 47°52' E 035°06'0 0.0
2014-Aug-27 03:33N 47°52' E 035°06'0 0.0
2014-Aug-27 02:33N 47°52' E 035°06'0 0.0
2014-Aug-27 01:34N 47°52' E 035°06'0 0.0
2014-Aug-27 00:33N 47°52' E 035°06'0 0.0
2014-Aug-26 23:33N 47°52' E 035°06'0 0.0
2014-Aug-26 22:33N 47°52' E 035°06'0 0.0
2014-Aug-26 21:34N 47°52' E 035°06'0 0.0
2014-Aug-26 20:27N 47°52' E 035°06'0 0.0
2014-Aug-26 19:34N 47°52' E 035°06'0 0.0
2014-Aug-26 18:33N 47°52' E 035°06'0 0.0
2014-Aug-26 17:33N 47°52' E 035°06'0 0.0
2014-Aug-26 16:33N 47°52' E 035°06'0 0.0
2014-Aug-26 15:34N 47°52' E 035°06'0 0.0
2014-Aug-26 14:33N 47°52' E 035°06'0 0.0
2014-Aug-26 13:34N 47°52' E 035°06'0 0.0
2014-Aug-26 12:33N 47°52' E 035°06'0 0.0
2014-Aug-26 11:34N 47°52' E 035°06'0 0.0
2014-Aug-26 10:27N 47°52' E 035°06'0 0.0
2014-Aug-26 09:33N 47°52' E 035°06'0 0.0
2014-Aug-26 08:33N 47°52' E 035°06'0 0.0
2014-Aug-26 07:33N 47°52' E 035°06'0 0.0
2014-Aug-26 06:33N 47°52' E 035°06'0 0.0
2014-Aug-26 05:33N 47°52' E 035°06'0 0.0
2014-Aug-26 04:33N 47°52' E 035°06'0 0.0
2014-Aug-26 03:33N 47°52' E 035°06'0 0.0
2014-Aug-26 02:33N 47°52' E 035°06'0 0.0
2014-Aug-26 01:33N 47°52' E 035°06'0 0.0
2014-Aug-26 00:34N 47°52' E 035°06'0 0.0
2014-Aug-25 23:09N 47°52' E 035°06'0 0.0
2014-Aug-25 22:33N 47°52' E 035°06'0 0.0
2014-Aug-25 21:34N 47°52' E 035°06'0 0.0
2014-Aug-25 20:34N 47°52' E 035°06'0 0.0
2014-Aug-25 19:33N 47°52' E 035°06'0 0.0
2014-Aug-25 18:33N 47°52' E 035°06'0 0.0
2014-Aug-25 17:33N 47°52' E 035°06'1 0.9
2014-Aug-25 16:33N 47°52' E 035°05'1 1.1
2014-Aug-25 15:33N 47°51' E 035°05'7 6.8
2014-Aug-25 14:34N 47°45' E 035°10'132 5.3
2014-Aug-24 13:32N 46°34' E 032°26'9 7.4
2014-Aug-24 12:18N 46°33' E 032°13'6 7.7
2014-Aug-24 11:33N 46°32' E 032°05'7 7.5
2014-Aug-24 10:33N 46°34' E 031°54'  
Track history (hours):
 
Tides and Currents Weather Stations Pressure Air Temp Water Temp Dewpoint Dewpoint Depression Visibility Wind Speed Wind Dir Waves Ship Positions

Vasiliy Bozhenko

Last reported at 2014-Aug-30 19:33 UTC. Time now 2014-Sep-01 21:10 UTC.
Position N 46°33' E 031°27'.

Length 114 m; draft 3.8 m.

Type: Cargo ship. MMSI: 272085000.

Date/timePositionNaut miles runAvg speedWind from/ knotsBaromVisibWave heightAir tempDewpointWater temp
2014-Aug-30 19:33N 46°33' E 031°27'5 5.0
2014-Aug-30 18:33N 46°35' E 031°34'7 7.2
2014-Aug-30 17:33N 46°36' E 031°44'7 7.2
2014-Aug-30 16:34N 46°34' E 031°55'8 7.3
2014-Aug-30 15:27N 46°32' E 032°06'143 4.9
2014-Aug-29 10:33N 47°43' E 035°08'6 6.5
2014-Aug-29 09:33N 47°49' E 035°09'4 3.5
2014-Aug-29 08:32N 47°52' E 035°06'1 0.7
2014-Aug-29 07:32N 47°52' E 035°06'0 0.0
2014-Aug-29 06:32N 47°52' E 035°06'0 0.0
2014-Aug-29 05:32N 47°52' E 035°06'0 0.0
2014-Aug-29 04:32N 47°52' E 035°06'0 0.1
2014-Aug-29 03:32N 47°52' E 035°06'0 0.2
2014-Aug-29 02:32N 47°52' E 035°06'0 0.0
2014-Aug-29 01:32N 47°52' E 035°06'0 0.0
2014-Aug-29 00:14N 47°52' E 035°06'0 0.0
2014-Aug-28 23:32N 47°52' E 035°06'0 0.0
2014-Aug-28 22:32N 47°52' E 035°06'0 0.0
2014-Aug-28 20:32N 47°52' E 035°06'0 0.0
2014-Aug-28 19:32N 47°52' E 035°06'0 0.0
2014-Aug-28 18:32N 47°52' E 035°06'0 0.0
2014-Aug-28 17:26N 47°52' E 035°06'0 0.0
2014-Aug-28 16:28N 47°52' E 035°06'0 0.0
2014-Aug-28 15:28N 47°52' E 035°06'0 0.0
2014-Aug-28 14:28N 47°52' E 035°06'0 0.0
2014-Aug-28 13:28N 47°52' E 035°06'0 0.0
2014-Aug-28 12:28N 47°52' E 035°06'0 0.0
2014-Aug-28 11:34N 47°52' E 035°06'0 0.0
2014-Aug-28 10:33N 47°52' E 035°06'0 0.0
2014-Aug-28 09:33N 47°52' E 035°06'0 0.0
2014-Aug-28 08:33N 47°52' E 035°06'0 0.0
2014-Aug-28 07:33N 47°52' E 035°06'0 0.0
2014-Aug-28 06:33N 47°52' E 035°06'0 0.0
2014-Aug-28 05:34N 47°52' E 035°06'0 0.0
2014-Aug-28 04:33N 47°52' E 035°06'0 0.0
2014-Aug-28 03:34N 47°52' E 035°06'0 0.0
2014-Aug-28 02:28N 47°52' E 035°06'0 0.0
2014-Aug-28 01:34N 47°52' E 035°06'0 0.0
2014-Aug-28 00:33N 47°52' E 035°06'0 0.1
2014-Aug-27 23:33N 47°52' E 035°06'0 0.0
2014-Aug-27 22:33N 47°52' E 035°06'0 0.0
2014-Aug-27 21:27N 47°52' E 035°06'0 0.0
2014-Aug-27 20:33N 47°52' E 035°06'0 0.0
2014-Aug-27 19:33N 47°52' E 035°06'0 0.0
2014-Aug-27 18:34N 47°52' E 035°06'0 0.0
2014-Aug-27 17:33N 47°52' E 035°06'0 0.0
2014-Aug-27 16:34N 47°52' E 035°06'0 0.0
2014-Aug-27 15:27N 47°52' E 035°06'0 0.0
2014-Aug-27 14:33N 47°52' E 035°06'0 0.0
2014-Aug-27 13:33N 47°52' E 035°06'0 0.0
2014-Aug-27 12:33N 47°52' E 035°06'0 0.0
2014-Aug-27 11:34N 47°52' E 035°06'0 0.0
2014-Aug-27 10:31N 47°52' E 035°06'0 0.0
2014-Aug-27 09:33N 47°52' E 035°06'0 0.0
2014-Aug-27 08:27N 47°52' E 035°06'0 0.0
2014-Aug-27 07:33N 47°52' E 035°06'0 0.0
2014-Aug-27 06:28N 47°52' E 035°06'0 0.0
2014-Aug-27 04:27N 47°52' E 035°06'0 0.0
2014-Aug-27 03:33N 47°52' E 035°06'0 0.0
2014-Aug-27 02:33N 47°52' E 035°06'0 0.0
2014-Aug-27 01:34N 47°52' E 035°06'0 0.0
2014-Aug-27 00:33N 47°52' E 035°06'0 0.0
2014-Aug-26 23:33N 47°52' E 035°06'0 0.0
2014-Aug-26 22:33N 47°52' E 035°06'0 0.0
2014-Aug-26 21:34N 47°52' E 035°06'0 0.0
2014-Aug-26 20:27N 47°52' E 035°06'0 0.0
2014-Aug-26 19:34N 47°52' E 035°06'0 0.0
2014-Aug-26 18:33N 47°52' E 035°06'0 0.0
2014-Aug-26 17:33N 47°52' E 035°06'0 0.0
2014-Aug-26 16:33N 47°52' E 035°06'0 0.0
2014-Aug-26 15:34N 47°52' E 035°06'0 0.0
2014-Aug-26 14:33N 47°52' E 035°06'0 0.0
2014-Aug-26 13:34N 47°52' E 035°06'0 0.0
2014-Aug-26 12:33N 47°52' E 035°06'0 0.0
2014-Aug-26 11:34N 47°52' E 035°06'0 0.0
2014-Aug-26 10:27N 47°52' E 035°06'0 0.0
2014-Aug-26 09:33N 47°52' E 035°06'0 0.0
2014-Aug-26 08:33N 47°52' E 035°06'0 0.0
2014-Aug-26 07:33N 47°52' E 035°06'0 0.0
2014-Aug-26 06:33N 47°52' E 035°06'0 0.0
2014-Aug-26 05:33N 47°52' E 035°06'0 0.0
2014-Aug-26 04:33N 47°52' E 035°06'0 0.0
2014-Aug-26 03:33N 47°52' E 035°06'0 0.0
2014-Aug-26 02:33N 47°52' E 035°06'0 0.0
2014-Aug-26 01:33N 47°52' E 035°06'0 0.0
2014-Aug-26 00:34N 47°52' E 035°06'0 0.0
2014-Aug-25 23:09N 47°52' E 035°06'0 0.0
2014-Aug-25 22:33N 47°52' E 035°06'0 0.0
2014-Aug-25 21:34N 47°52' E 035°06'0 0.0
2014-Aug-25 20:34N 47°52' E 035°06'0 0.0
2014-Aug-25 19:33N 47°52' E 035°06'0 0.0
2014-Aug-25 18:33N 47°52' E 035°06'0 0.0
2014-Aug-25 17:33N 47°52' E 035°06'1 0.9
2014-Aug-25 16:33N 47°52' E 035°05'1 1.1
2014-Aug-25 15:33N 47°51' E 035°05'7 6.8
2014-Aug-25 14:34N 47°45' E 035°10'132 5.3
2014-Aug-24 13:32N 46°34' E 032°26'9 7.4
2014-Aug-24 12:18N 46°33' E 032°13'6 7.7
2014-Aug-24 11:33N 46°32' E 032°05'7 7.5
2014-Aug-24 10:33N 46°34' E 031°54'  

Dump ship's entire track history